Tiempo atmosférico en la estación meteorológica de Salvacañete, Cuenca (1160 m.)



Fecha
DESCASC
Temp. máxima en grados centígrados (hora)
DESCASC
Temp. mínima en grados centígrados (hora)
DESCASC
Temp. media en grados centígrados
DESCASC
Racha de viento máxima en m/sg (hora)
DESCASC
Velocidad máxima media en intervalos de 10 minutos(hora)
DESCASC
Precipitaciones diarias en mm
DESCASC
Precipitaciones de 00:00 a 06:00 en mm
DESCASC
Precipitaciones de 06:00 a 12:00 en mm
DESCASC
Precipitaciones de 12:00 a 18:00 en mm
DESCASC
Precipitaciones de 18:00 a 24:00 en mm
DESCASC
25-04-2019 10.8 (14:50) 4.8 (23:50) 7.8 18.89 (00:30) 10 (00:30) 8.6 3.8 2.6 2.2 0
24-04-2019 10.7 (19:30) 2 (07:20) 6.3 16.39 (23:59) 8.89 (23:59) 1.4 0.2 0 1.2 0
23-04-2019 10.2 (12:00) 3.4 (23:50) 6.8 12.78 (18:00) 7.5 (17:50) 3.6 0.6 0 3 0
22-04-2019 11.3 (19:00) 5.9 (00:00) 8.6 7.78 (13:40) 4.17 (13:10) 1.6 1.6 0 0 0
21-04-2019 7.8 (16:00) 3.8 (00:00) 5.8 7.5 (11:10) 3.61 (05:50) 1.2 0.8 0 0 0.4
20-04-2019 10.6 (13:50) 4 (00:00) 7.3 20.83 (06:20) 11.11 (08:20) 9.4 0 0 2.8 6.6
19-04-2019 9.5 (16:30) 5.4 (00:00) 7.5 17.5 (19:30) 9.44 (18:40) 39.6 10 15.2 10.4 4
18-04-2019 10.4 (10:50) 4.9 (00:00) 7.6 7.5 (01:50) 4.17 (17:20) 31.8 0 0 12.2 19.6
17-04-2019 17.2 (14:40) 3.6 (00:00) 10.4 8.33 (19:50) 5 (17:30) 0 0 0 0 0
16-04-2019 18.8 (16:50) 5.7 (00:00) 12.2 8.89 (18:30) 4.17 (18:20) 0.2 0.2 0 0 0
15-04-2019 20.3 (17:20) 5.2 (00:00) 12.7 9.72 (17:10) 4.44 (17:10) 0.8 0 0 0 0.8
14-04-2019 22.1 (16:20) -1.4 (-00:0) 10.4 9.72 (15:40) 5.28 (11:10) 0 0 0 0 0
13-04-2019 18.8 (16:50) -4.7 (-00:0) 7 7.5 (12:50) 4.17 (17:00) 0 0 0 0 0
12-04-2019 14.6 (18:00) -0.7 (-00:0) 7 9.72 (11:00) 6.11 (11:10) 0 0 0 0 0
11-04-2019 12 (17:00) -0.3 (00:00) 5.8 9.72 (13:40) 4.72 (09:10) 0 0 0 0 0
10-04-2019 9.9 (15:00) 0.2 (00:00) 5 10.28 (11:50) 5.83 (11:50) 4.8 0.2 0 2.6 2
09-04-2019 7.4 (13:50) 0.6 (00:00) 4 13.06 (14:40) 6.67 (13:30) 4.8 0 0 3 1.8
08-04-2019 11.8 (17:40) 3.6 (00:00) 7.7 10.56 (15:50) 6.39 (17:10) 2 0.4 0 1.6 0
07-04-2019 9.4 (17:20) 0.8 (00:00) 5.1 10 (12:10) 5.56 (13:40) 5.8 1.2 4.4 0.2 0
06-04-2019 5.7 (18:30) 0.6 (00:00) 3.1 14.44 (15:10) 8.06 (12:10) 1.4 0.2 0.2 1 0
05-04-2019 5.7 (12:30) 0.6 (00:00) 3.1 12.22 (20:30) 5.83 (20:30) 5.4 0 0 4.2 1.2
04-04-2019 11.5 (15:50) -3 (-00:0) 4.3 8.89 (18:30) 5 (16:00) 0 0 0 0 0
03-04-2019 12.8 (16:00) 1.1 (00:00) 7 12.78 (17:00) 7.5 (15:40) 0 0 0 0 0
02-04-2019 13.7 (17:30) 4.4 (00:00) 9 9.72 (14:00) 5.28 (14:10) 0.4 0 0 0 0.4
01-04-2019 9.8 (18:20) 5.6 (00:00) 7.7 4.72 (21:30) 2.78 (11:00) 4.2 2 1.2 1 0
31-03-2019 6.2 (17:10) 1.4 (00:00) 3.8 6.94 (13:20) 4.17 (13:20) 18.8 0 6.2 11.4 1.2
30-03-2019 15.8 (15:50) -5.6 (-00:0) 5.1 7.78 (18:40) 4.44 (18:40) 0 0 0 0 0
29-03-2019 13.1 (15:30) -5.6 (-00:0) 3.8 11.39 (14:00) 7.22 (12:40) 0 0 0 0 0
28-03-2019 15.5 (14:50) -5.4 (-00:0) 5 9.44 (15:30) 4.72 (15:30) 0 0 0 0 0
27-03-2019 15.1 (16:40) -1.1 (-00:0) 7 9.17 (16:30) 5 (12:10) 0 0 0 0 0

Gráficas

Temp. máximas Temp. mínimas Temp. medias Precipitaciones Rachas de viento máximas Velocidades máximas media en intervalos de 10 minutos

Datos horarios

Fecha y hora oficial Temperatura (ºC) Velocidad del viento (km/h) Dirección del viento Racha (km/h) Dirección de racha Precipitación (mm) Presión (hPa) Tendencia (hPa) Humedad (%)
2019-04-25 23:00:00 5.3 23 Oeste 39 Oeste 0 -- -- 74
2019-04-25 22:00:00 5.8 14 Oeste 33 Oeste 0 -- -- 79
2019-04-25 21:00:00 6.5 15 Oeste 34 Oeste 0 -- -- 77
2019-04-25 20:00:00 7.4 13 Oeste 42 Oeste 0 -- -- 71
2019-04-25 19:00:00 7.9 26 Oeste 45 Oeste 0 -- -- 71
2019-04-25 18:00:00 7.9 19 Oeste 46 Oeste 1.8 -- -- 81
2019-04-25 17:00:00 8.8 22 Oeste 48 Oeste 0.2 -- -- 74
2019-04-25 16:00:00 8.6 22 Oeste 45 Oeste 0 -- -- 76
2019-04-25 15:00:00 10.4 28 Oeste 67 Oeste 0 -- -- 60
2019-04-25 14:00:00 9.7 34 Oeste 55 Oeste 0 -- -- 64
2019-04-25 13:00:00 8.7 27 Oeste 45 Oeste 0.2 -- -- 73
2019-04-25 12:00:00 7.1 23 Oeste 41 Oeste 0 -- -- 84
2019-04-25 11:00:00 7.3 15 Oeste 27 Sudoeste 0 -- -- 87
2019-04-25 10:00:00 5.9 13 Oeste 28 Sudoeste 0.4 -- -- 92
2019-04-25 09:00:00 5.4 12 Oeste 29 Sudoeste 0.6 -- -- 93
2019-04-25 08:00:00 5.3 17 Oeste 35 Oeste 0.8 -- -- 92
2019-04-25 07:00:00 6.3 18 Oeste 37 Oeste 0.8 -- -- 91
2019-04-25 06:00:00 7.7 21 Oeste 49 Oeste 1.8 -- -- 91
2019-04-25 05:00:00 8.2 9 Sudoeste 46 Sur 1 -- -- 92
2019-04-25 04:00:00 8.2 16 Oeste 50 Oeste 0.4 -- -- 92
2019-04-25 03:00:00 8.2 24 Oeste 44 Oeste 0.2 -- -- 92
2019-04-25 02:00:00 8.1 15 Sudoeste 60 Sudoeste 0.2 -- -- 92
2019-04-25 01:00:00 8.4 26 Oeste 68 Oeste 0.2 -- -- 90
2019-04-25 00:00:00 8.6 32 Oeste 59 Oeste 0 -- -- 88
2019-04-24 23:00:00 9.3 24 Sudoeste 50 Sudoeste 0 -- -- 81
2019-04-24 22:00:00 9.3 18 Oeste 47 Sudoeste 0 -- -- 80
2019-04-24 21:00:00 9.6 22 Oeste 53 Oeste 0 -- -- 78
2019-04-24 20:00:00 10 16 Oeste 50 Sudoeste 0 -- -- 77
2019-04-24 19:00:00 9.8 22 Oeste 48 Oeste 0 -- -- 79
2019-04-24 18:00:00 8.4 9 Sudoeste 29 Sudoeste 0 -- -- 84
2019-04-24 17:00:00 7.6 10 Sudoeste 33 Oeste 0.2 -- -- 90
2019-04-24 16:00:00 7 12 Sudoeste 31 Sudoeste 0.2 -- -- 91
2019-04-24 15:00:00 6.4 14 Sudoeste 35 Sudoeste 0.2 -- -- 91
2019-04-24 14:00:00 5.7 10 Sudoeste 30 Sur 0.6 -- -- 92
2019-04-24 13:00:00 5 11 Sudoeste 32 Oeste 0 -- -- 87
2019-04-24 12:00:00 5.2 14 Sudoeste 36 Sudoeste 0 -- -- 83
2019-04-24 11:00:00 4.2 19 Sudoeste 36 Sudoeste 0 -- -- 82
2019-04-24 10:00:00 3.2 22 Oeste 41 Oeste 0 -- -- 83
2019-04-24 09:00:00 2.5 18 Oeste 37 Oeste 0 -- -- 86
2019-04-24 08:00:00 2.1 22 Oeste 40 Oeste 0 -- -- 86
2019-04-24 07:00:00 2.1 19 Oeste 40 Oeste 0 -- -- 85
2019-04-24 06:00:00 2.2 14 Oeste 37 Oeste 0 -- -- 89
2019-04-24 05:00:00 2.3 19 Oeste 38 Oeste 0.2 -- -- 90
2019-04-24 04:00:00 2.6 19 Oeste 40 Sudoeste 0 -- -- 86
2019-04-24 03:00:00 2.4 10 Sudoeste 43 Oeste 0 -- -- 90
2019-04-24 02:00:00 2.7 21 Oeste 39 Oeste 0 -- -- 89
2019-04-24 01:00:00 3.6 17 Oeste 34 Oeste 0 -- -- 86
2019-04-24 00:00:00 3.4 16 Oeste 32 Oeste 0 -- -- 85
2019-04-23 23:00:00 3.8 20 Oeste 37 Sudoeste 0 -- -- 83
2019-04-23 22:00:00 4.4 16 Oeste 32 Oeste 0 -- -- 83
2019-04-23 21:00:00 4.4 13 Oeste 39 Oeste 0 -- -- 82
2019-04-23 20:00:00 7.2 15 Oeste 39 Oeste 0 -- -- 69
2019-04-23 19:00:00 7.3 17 Oeste 32 Oeste 0 -- -- 75
2019-04-23 18:00:00 5.9 25 Oeste 46 Oeste 1 -- -- 86
2019-04-23 17:00:00 8.6 10 Sudoeste 24 Oeste 0 -- -- 75
2019-04-23 16:00:00 8.5 13 Oeste 33 Sudoeste 0.2 -- -- 82
2019-04-23 15:00:00 8.6 9 Sudoeste 25 Oeste 0 -- -- 82
2019-04-23 14:00:00 7.7 13 Oeste 30 Oeste 1.8 -- -- 92
2019-04-23 13:00:00 8.6 9 Sudoeste 32 Oeste 0 -- -- 84
2019-04-23 12:00:00 10.2 15 Sudoeste 32 Oeste 0 -- -- 76
2019-04-23 11:00:00 7.7 11 Oeste 28 Oeste 0 -- -- 88
2019-04-23 10:00:00 7.1 9 Oeste 23 Sudoeste 0 -- -- 92
2019-04-23 09:00:00 6.9 7 Sudoeste 24 Sudoeste 0 -- -- 94
2019-04-23 08:00:00 6.9 8 Sudoeste 27 Oeste 0 -- -- 94
2019-04-23 07:00:00 6.9 9 Oeste 17 Sudoeste 0 -- -- 95
2019-04-23 06:00:00 6.4 2 Oeste 6 Oeste 0 -- -- 95
2019-04-23 05:00:00 6.4 4 Noroeste 7 Noroeste 0 -- -- 95
2019-04-23 04:00:00 6.2 2 Este 9 Noroeste 0.6 -- -- 94
2019-04-23 03:00:00 6.2 4 Noroeste 6 Noroeste 0 -- -- 93
2019-04-23 02:00:00 6.2 0 Calma 3 Noroeste 0 -- -- 93
2019-04-23 01:00:00 6.9 0 Calma 7 Noroeste 0 -- -- 89
2019-04-23 00:00:00 8.2 6 Noroeste 9 Noroeste 0 -- -- 87
2019-04-22 23:00:00 9 0 Calma 12 Sudoeste 0 -- -- 83
2019-04-22 22:00:00 9.4 6 Oeste 17 Sudoeste 0 -- -- 80
2019-04-22 21:00:00 10.1 8 Sudoeste 19 Sudoeste 0 -- -- 78
2019-04-22 20:00:00 10.8 8 Sudoeste 14 Sudoeste 0 -- -- 74
2019-04-22 19:00:00 11.3 3 Oeste 10 Sudoeste 0 -- -- 70
2019-04-22 18:00:00 10.8 3 Oeste 9 Oeste 0 -- -- 72
2019-04-22 17:00:00 10.3 3 Noroeste 7 Oeste 0 -- -- 72
2019-04-22 16:00:00 10.3 4 Norte 13 Nordeste 0 -- -- 70
2019-04-22 15:00:00 10.2 5 Norte 23 Este 0 -- -- 71
2019-04-22 14:00:00 10.1 14 Este 28 Este 0 -- -- 74
2019-04-22 13:00:00 9.5 13 Este 22 Este 0 -- -- 74
2019-04-22 12:00:00 8.1 6 Este 18 Este 0 -- -- 77
2019-04-22 11:00:00 7.7 12 Este 22 Este 0 -- -- 75
2019-04-22 10:00:00 7.3 9 Este 23 Este 0 -- -- 80
2019-04-22 09:00:00 6.4 7 Este 15 Este 0 -- -- 87
2019-04-22 08:00:00 5.9 2 Este 7 Norte 0 -- -- 86
2019-04-22 07:00:00 6.1 4 Sudeste 10 Este 0 -- -- 85
2019-04-22 06:00:00 6.2 4 Este 12 Este 0 -- -- 86
2019-04-22 05:00:00 6.1 0 Calma 12 Este 0 -- -- 87
2019-04-22 04:00:00 6.1 4 Este 12 Este 0 -- -- 89
2019-04-22 03:00:00 6.2 5 Este 10 Este 0.2 -- -- 89
2019-04-22 02:00:00 6.3 2 Norte 12 Este 0.2 -- -- 87
2019-04-22 01:00:00 6.2 6 Este 16 Nordeste 1.2 -- -- 89
2019-04-22 00:00:00 6.4 4 Este 13 Nordeste 0.4 -- -- 87
2019-04-21 23:00:00 6.6 6 Nordeste 19 Norte 0 -- -- 84
2019-04-21 22:00:00 6.5 5 Nordeste 26 Norte 0 -- -- 85
2019-04-21 21:00:00 6.4 7 Nordeste 20 Noroeste 0 -- -- 84
2019-04-21 20:00:00 6.5 4 Nordeste 23 Este 0 -- -- 84
2019-04-21 19:00:00 7 7 Nordeste 22 Nordeste 0 -- -- 82
2019-04-21 18:00:00 7.3 5 Nordeste 19 Este 0 -- -- 81
2019-04-21 17:00:00 7.6 6 Este 20 Nordeste 0 -- -- 78
2019-04-21 16:00:00 7.8 6 Este 21 Este 0 -- -- 79
2019-04-21 15:00:00 6.8 4 Nordeste 18 Este 0 -- -- 82
2019-04-21 14:00:00 6.8 3 Nordeste 14 Este 0 -- -- 82
2019-04-21 13:00:00 6.7 3 Este 19 Este 0 -- -- 81
2019-04-21 12:00:00 6.8 6 Este 27 Este 0 -- -- 79
2019-04-21 11:00:00 6.9 10 Este 22 Este 0 -- -- 80
2019-04-21 10:00:00 5.7 8 Este 17 Este 0 -- -- 83
2019-04-21 09:00:00 5.2 3 Este 17 Este 0 -- -- 84
2019-04-21 08:00:00 4.8 6 Este 20 Este 0 -- -- 85
2019-04-21 07:00:00 4.7 9 Este 24 Este 0 -- -- 85
2019-04-21 06:00:00 4.8 12 Este 22 Este 0 -- -- 84
2019-04-21 05:00:00 4.5 11 Este 22 Este 0 -- -- 85
2019-04-21 04:00:00 4.3 8 Este 18 Este 0 -- -- 87
2019-04-21 03:00:00 3.8 0 Calma 13 Noroeste 0 -- -- 90
2019-04-21 02:00:00 4.1 6 Noroeste 24 Este 0.2 -- -- 87
2019-04-21 01:00:00 4 9 Este 26 Este 0.6 -- -- 87
2019-04-21 00:00:00 4.5 5 Este 19 Noroeste 0.2 -- -- 86
2019-04-20 23:00:00 4.8 8 Noroeste 23 Noroeste 0.2 -- -- 84
2019-04-20 22:00:00 4 7 Norte 22 Norte 0.8 -- -- 86
2019-04-20 21:00:00 4.9 4 Nordeste 33 Este 2.2 -- -- 86
2019-04-20 20:00:00 5.4 14 Este 30 Este 1.2 -- -- 85
2019-04-20 19:00:00 6 12 Nordeste 31 Este 2 -- -- 84
2019-04-20 18:00:00 6.8 11 Nordeste 33 Este 1.8 -- -- 82
2019-04-20 17:00:00 8.3 11 Este 36 Este 1 -- -- 77
2019-04-20 16:00:00 9.4 23 Este 53 Este 0 -- -- 62
2019-04-20 15:00:00 9.7 29 Este 54 Nordeste 0 -- -- 57
2019-04-20 14:00:00 10.5 36 Este 67 Este 0 -- -- 54
2019-04-20 13:00:00 10.2 35 Este 75 Este 0 -- -- 59
2019-04-20 12:00:00 10.2 29 Este 59 Nordeste 0 -- -- 60
2019-04-20 11:00:00 10 31 Este 56 Este 0 -- -- 68
2019-04-20 10:00:00 9.5 25 Este 54 Este 0 -- -- 70
2019-04-20 09:00:00 8.5 31 Este 71 Nordeste 0 -- -- 72
2019-04-20 08:00:00 9.3 39 Este 70 Este 0 -- -- 65
2019-04-20 07:00:00 8.9 34 Este 75 Este 0 -- -- 70
2019-04-20 06:00:00 8.9 33 Este 61 Nordeste 0 -- -- 69
2019-04-20 05:00:00 9 25 Este 71 Este 0 -- -- 66
2019-04-20 04:00:00 8.8 28 Este 59 Nordeste 0 -- -- 67
2019-04-20 03:00:00 8.3 27 Este 59 Este 0 -- -- 74
2019-04-20 02:00:00 8.2 32 Este 52 Este 0 -- -- 75
2019-04-20 01:00:00 8 19 Este 60 Este 0 -- -- 77
2019-04-20 00:00:00 8.1 33 Este 54 Este 0 -- -- 80
2019-04-19 23:00:00 8.3 24 Este 42 Este 0.2 -- -- 83
2019-04-19 22:00:00 8.2 15 Este 36 Este 0.4 -- -- 82
2019-04-19 21:00:00 8.4 18 Este 49 Este 0.6 -- -- 79
2019-04-19 20:00:00 8.3 28 Este 63 Este 2 -- -- 81
2019-04-19 19:00:00 8.6 34 Este 62 Este 0.8 -- -- 80
2019-04-19 18:00:00 8.9 24 Este 53 Este 0.6 -- -- 87
2019-04-19 17:00:00 9.5 21 Este 48 Este 0.2 -- -- 84
2019-04-19 16:00:00 9.4 18 Este 39 Este 0.2 -- -- 90
2019-04-19 15:00:00 7.4 0 Calma 5 Sudoeste 0.8 -- -- 94
2019-04-19 14:00:00 7 2 Este 9 Noroeste 2.6 -- -- 94
2019-04-19 13:00:00 7 2 Oeste 6 Sudoeste 6 -- -- 94
2019-04-19 12:00:00 7.1 4 Oeste 12 Norte 4.2 -- -- 94
2019-04-19 11:00:00 6.6 0 Calma 4 Sur 2.8 -- -- 96
2019-04-19 10:00:00 6.2 0 Calma 5 Sudoeste 2.4 -- -- 97
2019-04-19 09:00:00 6 0 Calma 3 Oeste 2.2 -- -- 97
2019-04-19 08:00:00 5.7 2 Oeste 4 Oeste 1.6 -- -- 96
2019-04-19 07:00:00 5.6 0 Calma 4 Noroeste 2 -- -- 96
2019-04-19 06:00:00 5.6 0 Calma 3 Noroeste 1.2 -- -- 96
2019-04-19 05:00:00 5.5 0 Calma 5 Noroeste 1.4 -- -- 96
2019-04-19 04:00:00 5.4 0 Calma 3 Sudoeste 1 -- -- 95
2019-04-19 03:00:00 5.5 2 Oeste 4 Sudoeste 1.6 -- -- 95
2019-04-19 02:00:00 5.5 0 Calma 3 Este 3 -- -- 95
2019-04-19 01:00:00 5.4 2 Sudoeste 5 Este 1.8 -- -- 95
2019-04-19 00:00:00 5.4 4 Este 13 Norte 2.4 -- -- 95
2019-04-18 23:00:00 5.1 0 Calma 7 Este 3 -- -- 94
2019-04-18 22:00:00 5.1 5 Este 10 Este 2.6 -- -- 94
2019-04-18 21:00:00 4.9 0 Calma 10 Este 3.6 -- -- 92
2019-04-18 20:00:00 5.2 3 Oeste 17 Oeste 4.2 -- -- 90
2019-04-18 19:00:00 6.8 4 Sudoeste 12 Oeste 3.8 -- -- 92
2019-04-18 18:00:00 7.2 7 Oeste 27 Oeste 11 -- -- 92
2019-04-18 17:00:00 8 5 Este 15 Este 1.2 -- -- 92
2019-04-18 16:00:00 7.9 8 Este 22 Este 0 -- -- 91
2019-04-18 15:00:00 8.3 10 Este 13 Este 0 -- -- 87
2019-04-18 14:00:00 8.6 5 Sudeste 25 Este 0 -- -- 80
2019-04-18 13:00:00 9.4 11 Este 26 Este 0 -- -- 71
2019-04-18 12:00:00 9.8 10 Este 19 Este 0 -- -- 66
2019-04-18 11:00:00 10.3 12 Este 20 Este 0 -- -- 61
2019-04-18 10:00:00 9.1 5 Sudeste 12 Sudeste 0 -- -- 69
2019-04-18 09:00:00 7.8 2 Noroeste 10 Oeste 0 -- -- 74
2019-04-18 08:00:00 8 5 Noroeste 16 Este 0 -- -- 71
2019-04-18 07:00:00 6.7 5 Este 16 Este 0 -- -- 77
2019-04-18 06:00:00 5.8 0 Calma 4 Sudeste 0 -- -- 82
2019-04-18 05:00:00 5.3 2 Oeste 6 Oeste 0 -- -- 84
2019-04-18 04:00:00 6.3 2 Oeste 5 Oeste 0 -- -- 84
2019-04-18 03:00:00 7.5 0 Calma 12 Noroeste 0 -- -- 78
2019-04-18 02:00:00 8.4 12 Sudeste 27 Este 0 -- -- 69
2019-04-18 01:00:00 8.1 4 Este 9 Este 0 -- -- 85
2019-04-18 00:00:00 8.5 4 Sudeste 18 Este 0 -- -- 84
2019-04-17 23:00:00 8.5 3 Este 15 Este 0 -- -- 84
2019-04-17 22:00:00 9 12 Este 19 Este 0 -- -- 83
2019-04-17 21:00:00 10.9 12 Este 22 Este 0 -- -- 72
2019-04-17 20:00:00 12.5 14 Este 30 Este 0 -- -- 63
2019-04-17 19:00:00 14 13 Este 28 Este 0 -- -- 60
2019-04-17 18:00:00 15 15 Este 28 Este 0 -- -- 56
2019-04-17 17:00:00 16.6 14 Este 28 Este 0 -- -- 53
2019-04-17 16:00:00 16.3 8 Sudeste 25 Este 0 -- -- 50
2019-04-17 15:00:00 16.8 10 Sur 25 Sudoeste 0 -- -- 49
2019-04-17 14:00:00 16.7 13 Sudoeste 24 Sudoeste 0 -- -- 51
2019-04-17 13:00:00 15.4 12 Sudoeste 22 Sudoeste 0 -- -- 52
2019-04-17 12:00:00 13.2 9 Sudoeste 21 Sudoeste 0 -- -- 60
2019-04-17 11:00:00 11.6 10 Sudoeste 16 Sudoeste 0 -- -- 71
2019-04-17 10:00:00 7.2 5 Oeste 12 Oeste 0 -- -- 88
2019-04-17 09:00:00 4.1 2 Oeste 4 Oeste 0 -- -- 94
2019-04-17 08:00:00 3.7 0 Calma 0 Calma 0 -- -- 90
2019-04-17 07:00:00 4.5 0 Calma 4 Nordeste 0 -- -- 90
2019-04-17 06:00:00 5.7 0 Calma 10 Nordeste 0 -- -- 88
2019-04-17 05:00:00 6.7 9 Este 15 Este 0 -- -- 87
2019-04-17 04:00:00 7 7 Este 17 Este 0 -- -- 87
2019-04-17 03:00:00 7.4 7 Este 21 Este 0 -- -- 85
2019-04-17 02:00:00 7.8 11 Este 22 Este 0 -- -- 84
2019-04-17 01:00:00 7.8 5 Este 13 Este 0 -- -- 86
2019-04-17 00:00:00 7.5 3 Este 15 Este 0 -- -- 85
2019-04-16 23:00:00 8.2 8 Este 21 Este 0 -- -- 83
2019-04-16 22:00:00 9.3 12 Este 21 Nordeste 0 -- -- 80
2019-04-16 21:00:00 11.3 8 Este 23 Este 0 -- -- 71
2019-04-16 20:00:00 14.2 9 Este 23 Sur 0 -- -- 63
2019-04-16 19:00:00 15.8 11 Sudeste 32 Sudeste 0 -- -- 56
2019-04-16 18:00:00 18 10 Sudoeste 29 Este 0 -- -- 46
2019-04-16 17:00:00 18.6 3 Sur 20 Sudoeste 0 -- -- 27
2019-04-16 16:00:00 18.3 9 Sudeste 21 Este 0 -- -- 34
2019-04-16 15:00:00 17.5 6 Este 15 Sudeste 0 -- -- 37
2019-04-16 14:00:00 16.2 8 Este 22 Este 0 -- -- 35
2019-04-16 13:00:00 14.5 6 Este 21 Este 0 -- -- 47
2019-04-16 12:00:00 13.6 10 Este 31 Nordeste 0 -- -- 52
2019-04-16 11:00:00 12.2 11 Este 22 Este 0 -- -- 67
2019-04-16 10:00:00 9.9 6 Noroeste 12 Noroeste 0 -- -- 70
2019-04-16 09:00:00 8.3 3 Este 10 Norte 0 -- -- 75
2019-04-16 08:00:00 5.9 8 Norte 19 Nordeste 0 -- -- 81
2019-04-16 07:00:00 6.1 7 Nordeste 19 Nordeste 0 -- -- 81
2019-04-16 06:00:00 5.9 3 Norte 8 Nordeste 0 -- -- 90
2019-04-16 05:00:00 6.4 4 Nordeste 7 Nordeste 0 -- -- 92
2019-04-16 04:00:00 7.3 0 Calma 6 Norte 0 -- -- 89
2019-04-16 03:00:00 9.2 0 Calma 6 Este 0 -- -- 90
2019-04-16 02:00:00 9.5 3 Sudeste 5 Noroeste 0.2 -- -- 89
2019-04-16 01:00:00 9.1 3 Noroeste 9 Sudoeste 0 -- -- 89
2019-04-16 00:00:00 8.4 0 Calma 5 Sudeste 0 -- -- 90
2019-04-15 23:00:00 9.9 2 Nordeste 20 Oeste 0.2 -- -- 84
2019-04-15 22:00:00 11.7 14 Oeste 27 Oeste 0.4 -- -- 79
2019-04-15 21:00:00 13.9 7 Sudoeste 26 Sudeste 0.2 -- -- 67
2019-04-15 20:00:00 16.6 4 Sur 21 Sur 0 -- -- 57
2019-04-15 19:00:00 18.5 8 Sudoeste 32 Sudoeste 0 -- -- 53
2019-04-15 18:00:00 18.6 12 Sudoeste 35 Oeste 0 -- -- 51
2019-04-15 17:00:00 19.7 14 Sudoeste 30 Sudoeste 0 -- -- 45
2019-04-15 16:00:00 20.1 13 Sudoeste 35 Sur 0 -- -- 45
2019-04-15 15:00:00 18.7 13 Sudoeste 33 Sudeste 0 -- -- 47
2019-04-15 14:00:00 18.3 9 Sur 26 Sur 0 -- -- 54
2019-04-15 13:00:00 18.4 7 Sur 29 Sudoeste 0 -- -- 56
2019-04-15 12:00:00 17.2 8 Sur 26 Sudeste 0 -- -- 57
2019-04-15 11:00:00 16 6 Sudeste 19 Sur 0 -- -- 59
2019-04-15 10:00:00 11.5 2 Oeste 5 Sudoeste 0 -- -- 79
2019-04-15 09:00:00 8.2 0 Calma 3 Oeste 0 -- -- 87
2019-04-15 08:00:00 5.8 0 Calma 4 Este 0 -- -- 93
2019-04-15 07:00:00 5.2 0 Calma 5 Este 0 -- -- 92
2019-04-15 06:00:00 5.5 3 Este 5 Este 0 -- -- 91
2019-04-15 05:00:00 6 0 Calma 4 Este 0 -- -- 90
2019-04-15 04:00:00 6.2 2 Este 5 Este 0 -- -- 88
2019-04-15 03:00:00 7.2 0 Calma 3 Este 0 -- -- 85
2019-04-15 02:00:00 7.7 2 Este 5 Este 0 -- -- 83
2019-04-15 01:00:00 8.6 0 Calma 6 Este 0 -- -- 78
2019-04-15 00:00:00 10.2 0 Calma 7 Este 0 -- -- 73
2019-04-14 23:00:00 11.6 2 Este 6 Este 0 -- -- 69
2019-04-14 22:00:00 12.9 4 Este 5 Este 0 -- -- 67
2019-04-14 21:00:00 16.3 0 Calma 15 Sudoeste 0 -- -- 50
2019-04-14 20:00:00 19.6 11 Oeste 22 Oeste 0 -- -- 41
2019-04-14 19:00:00 21.1 13 Oeste 25 Oeste 0 -- -- 38
2019-04-14 18:00:00 22 12 Oeste 26 Oeste 0 -- -- 36
2019-04-14 17:00:00 22 13 Oeste 31 Oeste 0 -- -- 37
2019-04-14 16:00:00 21.8 15 Oeste 35 Oeste 0 -- -- 39
2019-04-14 15:00:00 21.2 18 Sudoeste 31 Sudoeste 0 -- -- 38
2019-04-14 14:00:00 20.2 16 Oeste 29 Oeste 0 -- -- 40
2019-04-14 13:00:00 19.1 14 Oeste 29 Oeste 0 -- -- 39
2019-04-14 12:00:00 16.7 15 Oeste 33 Oeste 0 -- -- 41
2019-04-14 11:00:00 14.7 9 Oeste 27 Oeste 0 -- -- 47
2019-04-14 10:00:00 8.2 0 Calma 5 Este 0 -- -- 54
2019-04-14 09:00:00 2.8 0 Calma 4 Este 0 -- -- 70
2019-04-14 08:00:00 -0.9 4 Este 7 Este 0 -- -- 87
2019-04-14 07:00:00 -1.4 4 Este 6 Este 0 -- -- 87
2019-04-14 06:00:00 -1.3 3 Este 6 Este 0 -- -- 86
2019-04-14 05:00:00 -1.2 2 Este 6 Nordeste 0 -- -- 86
2019-04-14 04:00:00 -1.1 3 Este 5 Este 0 -- -- 85
2019-04-14 03:00:00 -0.6 3 Este 5 Este 0 -- -- 83
2019-04-14 02:00:00 0.4 0 Calma 4 Este 0 -- -- 77
2019-04-14 01:00:00 1.3 0 Calma 5 Nordeste 0 -- -- 73
2019-04-14 00:00:00 2.8 0 Calma 6 Nordeste 0 -- -- 67
2019-04-13 23:00:00 4.7 0 Calma 5 Sudeste 0 -- -- 57
2019-04-13 22:00:00 7.4 2 Este 9 Este 0 -- -- 47
2019-04-13 21:00:00 11.5 3 Este 19 Este 0 -- -- 36
2019-04-13 20:00:00 15.5 12 Este 21 Este 0 -- -- 23
2019-04-13 19:00:00 17.4 11 Este 22 Este 0 -- -- 22
2019-04-13 18:00:00 18.4 6 Sudoeste 24 Oeste 0 -- -- 24
2019-04-13 17:00:00 18.8 15 Oeste 26 Oeste 0 -- -- 22
2019-04-13 16:00:00 17.8 8 Este 21 Este 0 -- -- 25
2019-04-13 15:00:00 16.7 13 Este 23 Este 0 -- -- 22
2019-04-13 14:00:00 15.8 14 Este 26 Este 0 -- -- 27
2019-04-13 13:00:00 15.2 6 Sudoeste 27 Noroeste 0 -- -- 22
2019-04-13 12:00:00 13.1 6 Noroeste 24 Sudoeste 0 -- -- 22
2019-04-13 11:00:00 10.2 6 Noroeste 15 Noroeste 0 -- -- 29
2019-04-13 10:00:00 3.6 2 Oeste 5 Sudoeste 0 -- -- 70
2019-04-13 09:00:00 -0.6 3 Este 6 Este 0 -- -- 86
2019-04-13 08:00:00 -4.7 3 Este 5 Este 0 -- -- 92
2019-04-13 07:00:00 -4.1 0 Calma 5 Este 0 -- -- 91
2019-04-13 06:00:00 -3.9 0 Calma 4 Este 0 -- -- 91
2019-04-13 05:00:00 -3.2 0 Calma 3 Este 0 -- -- 89
2019-04-13 04:00:00 -2.2 2 Este 3 Este 0 -- -- 89
2019-04-13 03:00:00 -1.3 0 Calma -- -- 0 -- -- 87
2019-04-13 02:00:00 -0.3 0 Calma 3 Este 0 -- -- 84
2019-04-13 01:00:00 0.7 0 Calma 3 Nordeste 0 -- -- 81
2019-04-13 00:00:00 2.3 0 Calma 5 Oeste 0 -- -- 74
2019-04-12 23:00:00 3.6 3 Este 5 Este 0 -- -- 70
2019-04-12 22:00:00 5.9 0 Calma 6 Norte 0 -- -- 63
2019-04-12 21:00:00 8.9 3 Nordeste 17 Noroeste 0 -- -- 52
2019-04-12 20:00:00 12.6 7 Noroeste 18 Norte 0 -- -- 38
2019-04-12 19:00:00 13.6 10 Oeste 23 Oeste 0 -- -- 40
2019-04-12 18:00:00 14.6 7 Noroeste 23 Noroeste 0 -- -- 39
2019-04-12 17:00:00 13.7 6 Este 18 Noroeste 0 -- -- 40
2019-04-12 16:00:00 13.6 5 Oeste 19 Nordeste 0 -- -- 42
2019-04-12 15:00:00 12.1 4 Este 27 Norte 0 -- -- 46
2019-04-12 14:00:00 10.6 8 Este 25 Nordeste 0 -- -- 50
2019-04-12 13:00:00 9.4 8 Este 34 Este 0 -- -- 57
2019-04-12 12:00:00 8.6 19 Este 34 Este 0 -- -- 60
2019-04-12 11:00:00 7.8 16 Este 35 Este 0 -- -- 65
2019-04-12 10:00:00 5.6 6 Este 22 Nordeste 0 -- -- 70
2019-04-12 09:00:00 3.6 7 Este 17 Sudeste 0 -- -- 77
2019-04-12 08:00:00 2.2 9 Este 17 Este 0 -- -- 78
2019-04-12 07:00:00 1.4 5 Este 21 Este 0 -- -- 80
2019-04-12 06:00:00 2.2 7 Este 21 Este 0 -- -- 78
2019-04-12 05:00:00 1 11 Este 21 Este 0 -- -- 85
2019-04-12 04:00:00 -0.5 6 Este 10 Este 0 -- -- 86
2019-04-12 03:00:00 1.1 3 Este 11 Este 0 -- -- 82
2019-04-12 02:00:00 2.1 3 Este 11 Este 0 -- -- 82
2019-04-12 01:00:00 2.6 0 Calma 10 Este 0 -- -- 79
2019-04-12 00:00:00 4.2 3 Este 15 Nordeste 0 -- -- 76
2019-04-11 23:00:00 5.2 9 Este 16 Este 0 -- -- 71
2019-04-11 22:00:00 5.4 6 Este 12 Este 0 -- -- 66
2019-04-11 21:00:00 6.9 2 Norte 23 Oeste 0 -- -- 62
2019-04-11 20:00:00 9.9 6 Noroeste 26 Oeste 0 -- -- 46
2019-04-11 19:00:00 11.3 12 Noroeste 29 Noroeste 0 -- -- 42
2019-04-11 18:00:00 10.8 6 Oeste 22 Oeste 0 -- -- 45
2019-04-11 17:00:00 12 8 Oeste 28 Oeste 0 -- -- 42
2019-04-11 16:00:00 11.6 9 Nordeste 26 Oeste 0 -- -- 44
2019-04-11 15:00:00 11.2 8 Noroeste 28 Nordeste 0 -- -- 45
2019-04-11 14:00:00 10.4 11 Nordeste 35 Este 0 -- -- 52
2019-04-11 13:00:00 8.5 11 Noroeste 24 Oeste 0 -- -- 61
2019-04-11 12:00:00 7.1 6 Nordeste 23 Este 0 -- -- 65
2019-04-11 11:00:00 5.7 9 Este 29 Este 0 -- -- 69
2019-04-11 10:00:00 4.1 12 Este 31 Este 0 -- -- 73
2019-04-11 09:00:00 3.1 15 Este 30 Este 0 -- -- 75
2019-04-11 08:00:00 2.7 6 Este 22 Este 0 -- -- 78
2019-04-11 07:00:00 2.8 12 Este 27 Este 0 -- -- 79
2019-04-11 06:00:00 2.4 10 Este 21 Este 0 -- -- 81
2019-04-11 05:00:00 2.7 4 Nordeste 33 Este 0 -- -- 80
2019-04-11 04:00:00 2.2 9 Este 18 Nordeste 0 -- -- 84
2019-04-11 03:00:00 1.7 6 Este 13 Este 0 -- -- 86
2019-04-11 02:00:00 0.9 8 Este 14 Este 0 -- -- 96
2019-04-11 01:00:00 -0.2 0 Calma 6 Sudeste 0 -- -- 95
2019-04-11 00:00:00 0.2 0 Calma 9 Sudeste 0 -- -- 95
2019-04-10 23:00:00 0.6 6 Este 11 Este 0 -- -- 94
2019-04-10 22:00:00 1.7 4 Este 6 Este 0 -- -- 92
2019-04-10 21:00:00 3.4 3 Este 5 Norte 0 -- -- 88
2019-04-10 20:00:00 5 2 Sudeste 12 Noroeste 0.4 -- -- 82
2019-04-10 19:00:00 4.7 5 Noroeste 29 Oeste 1.6 -- -- 82
2019-04-10 18:00:00 5 2 Noroeste 13 Sudoeste 2 -- -- 84
2019-04-10 17:00:00 6.9 3 Sur 24 Sudoeste 0 -- -- 69
2019-04-10 16:00:00 6.1 6 Sudoeste 28 Noroeste 0.6 -- -- 74
2019-04-10 15:00:00 9.9 9 Sudoeste 30 Noroeste 0 -- -- 53
2019-04-10 14:00:00 8.3 11 Oeste 30 Oeste 0 -- -- 61
2019-04-10 13:00:00 8.4 7 Oeste 31 Oeste 0 -- -- 61
2019-04-10 12:00:00 6.9 18 Oeste 37 Oeste 0 -- -- 71
2019-04-10 11:00:00 6.3 16 Oeste 33 Oeste 0 -- -- 70
2019-04-10 10:00:00 5 12 Oeste 29 Oeste 0 -- -- 80
2019-04-10 09:00:00 3.3 7 Sudoeste 14 Oeste 0 -- -- 89
2019-04-10 08:00:00 1.1 3 Noroeste 8 Oeste 0 -- -- 92
2019-04-10 07:00:00 1.8 3 Noroeste 17 Sudoeste 0 -- -- 90
2019-04-10 06:00:00 2.2 7 Oeste 16 Oeste 0 -- -- 91
2019-04-10 05:00:00 1.9 4 Oeste 26 Oeste 0 -- -- 90
2019-04-10 04:00:00 1 5 Oeste 19 Oeste 0 -- -- 93
2019-04-10 03:00:00 1.2 2 Noroeste 11 Sudoeste 0 -- -- 92
2019-04-10 02:00:00 1.4 5 Sudoeste 11 Sudoeste 0 -- -- 93
2019-04-10 01:00:00 1.7 2 Noroeste 24 Oeste 0.2 -- -- 92
2019-04-10 00:00:00 1.7 6 Oeste 11 Oeste 0 -- -- 93
2019-04-09 23:00:00 1.4 5 Oeste 13 Oeste 0 -- -- 92
2019-04-09 22:00:00 2 2 Oeste 12 Oeste 0 -- -- 91
2019-04-09 21:00:00 2.6 2 Oeste 37 Oeste 1.4 -- -- 87
2019-04-09 20:00:00 4.5 12 Oeste 36 Oeste 0 -- -- 83
2019-04-09 19:00:00 5.6 21 Oeste 46 Oeste 0.4 -- -- 78
2019-04-09 18:00:00 4.6 17 Oeste 37 Sudoeste 0.8 -- -- 86
2019-04-09 17:00:00 5.4 7 Oeste 41 Oeste 0.6 -- -- 87
2019-04-09 16:00:00 6.5 5 Oeste 17 Sudoeste 0.8 -- -- 83
2019-04-09 15:00:00 6.4 8 Sudoeste 47 Oeste 0.8 -- -- 92
2019-04-09 14:00:00 7.2 13 Oeste 37 Oeste 0 -- -- 66
2019-04-09 13:00:00 6.9 18 Oeste 41 Oeste 0 -- -- 69
2019-04-09 12:00:00 6.2 21 Oeste 44 Oeste 0 -- -- 70
2019-04-09 11:00:00 6.1 20 Oeste 35 Oeste 0 -- -- 73
2019-04-09 10:00:00 4.7 9 Oeste 28 Sudoeste 0 -- -- 81
2019-04-09 09:00:00 4.3 12 Oeste 24 Oeste 0 -- -- 83
2019-04-09 08:00:00 2.1 6 Oeste 10 Oeste 0 -- -- 92
2019-04-09 07:00:00 1.9 4 Oeste 10 Oeste 0 -- -- 90
2019-04-09 06:00:00 2 6 Oeste 21 Oeste 0 -- -- 93
2019-04-09 05:00:00 1.1 0 Calma 7 Norte 0 -- -- 93
2019-04-09 04:00:00 0.6 3 Este 5 Nordeste 0 -- -- 92
2019-04-09 03:00:00 1.4 3 Este 7 Este 0 -- -- 93
2019-04-09 02:00:00 2 0 Calma 6 Norte 0 -- -- 89
2019-04-09 01:00:00 3.6 0 Calma 5 Este 0 -- -- 90
2019-04-09 00:00:00 4.1 0 Calma 4 Nordeste 0 -- -- 90
2019-04-08 23:00:00 4.3 2 Este 6 Noroeste 0 -- -- 86
2019-04-08 22:00:00 5.9 3 Oeste 9 Oeste 0 -- -- 80
2019-04-08 21:00:00 8.2 6 Oeste 15 Oeste 0 -- -- 74
2019-04-08 20:00:00 10.3 14 Oeste 31 Oeste 0 -- -- 63
2019-04-08 19:00:00 11.7 14 Oeste 32 Oeste 0 -- -- 62
2019-04-08 18:00:00 11.7 17 Oeste 35 Oeste 0 -- -- 65
2019-04-08 17:00:00 10.4 18 Oeste 35 Sudoeste 1.2 -- -- 81
2019-04-08 16:00:00 9.1 15 Oeste 38 Oeste 0.4 -- -- 79
2019-04-08 15:00:00 9.9 16 Oeste 36 Oeste 0 -- -- 78
2019-04-08 14:00:00 10.5 15 Oeste 26 Oeste 0 -- -- 78
2019-04-08 13:00:00 9.3 17 Oeste 31 Oeste 0 -- -- 78
2019-04-08 12:00:00 8.8 14 Oeste 31 Oeste 0 -- -- 84
2019-04-08 11:00:00 7.7 12 Oeste 28 Oeste 0 -- -- 90
2019-04-08 10:00:00 6.9 14 Oeste 27 Oeste 0 -- -- 92
2019-04-08 09:00:00 6 12 Oeste 22 Oeste 0 -- -- 94
2019-04-08 08:00:00 5.4 8 Oeste 24 Oeste 0 -- -- 96
2019-04-08 07:00:00 4.4 13 Oeste 19 Oeste 0 -- -- 96
2019-04-08 06:00:00 3.8 0 Calma 3 Noroeste 0.2 -- -- 95
2019-04-08 05:00:00 3.7 2 Oeste 5 Oeste 0.2 -- -- 95
2019-04-08 04:00:00 3.6 3 Noroeste 9 Oeste 0 -- -- 94
2019-04-08 03:00:00 3.8 7 Oeste 13 Oeste 0 -- -- 91
2019-04-08 02:00:00 3.7 8 Oeste 12 Sudoeste 0 -- -- 88
2019-04-08 01:00:00 4 5 Oeste 10 Sudoeste 0 -- -- 84
2019-04-08 00:00:00 4.3 5 Oeste 16 Oeste 0 -- -- 80
2019-04-07 23:00:00 5 7 Oeste 20 Oeste 0 -- -- 76
2019-04-07 22:00:00 5.6 13 Oeste 25 Oeste 0 -- -- 70
2019-04-07 21:00:00 6.3 12 Oeste 28 Oeste 0 -- -- 61
2019-04-07 20:00:00 7.3 15 Oeste 36 Oeste 0 -- -- 57
2019-04-07 19:00:00 8.6 17 Oeste 33 Oeste 0 -- -- 52
2019-04-07 18:00:00 8.9 17 Oeste 35 Sudoeste 0 -- -- 50
2019-04-07 17:00:00 8.9 13 Oeste 28 Oeste 0 -- -- 55
2019-04-07 16:00:00 7.3 10 Oeste 24 Oeste 0 -- -- 58
2019-04-07 15:00:00 6.5 15 Oeste 29 Oeste 0 -- -- 66
2019-04-07 14:00:00 5.9 19 Oeste 34 Oeste 0 -- -- 67
2019-04-07 13:00:00 4.7 20 Oeste 36 Oeste 0.2 -- -- 76
2019-04-07 12:00:00 4.2 14 Oeste 36 Oeste 1 -- -- 75
2019-04-07 11:00:00 3 17 Oeste 35 Oeste 1 -- -- 82
2019-04-07 10:00:00 3.1 15 Sudoeste 28 Sudoeste 1.6 -- -- 88
2019-04-07 09:00:00 1.6 6 Oeste 18 Oeste 0.6 -- -- 87
2019-04-07 08:00:00 0.8 8 Oeste 18 Oeste 0 -- -- 92
2019-04-07 07:00:00 0.9 13 Oeste 21 Oeste 0.2 -- -- 90
2019-04-07 06:00:00 1.2 8 Oeste 16 Oeste 0.2 -- -- 89
2019-04-07 05:00:00 1.1 9 Oeste 17 Oeste 0.2 -- -- 89
2019-04-07 04:00:00 1.1 10 Oeste 19 Oeste 0.2 -- -- 90
2019-04-07 03:00:00 1.2 12 Oeste 24 Oeste 0.6 -- -- 91
2019-04-07 02:00:00 1.1 10 Oeste 17 Oeste 0 -- -- 92
2019-04-07 01:00:00 1.1 9 Oeste 16 Oeste 0 -- -- 92
2019-04-07 00:00:00 0.9 7 Oeste 13 Oeste 0 -- -- 92
2019-04-06 23:00:00 0.6 6 Oeste 31 Oeste 0 -- -- 93
2019-04-06 22:00:00 1.9 10 Noroeste 26 Noroeste 0 -- -- 85
2019-04-06 21:00:00 3.4 13 Oeste 24 Oeste 0 -- -- 75
2019-04-06 20:00:00 4.2 21 Oeste 43 Oeste 0 -- -- 71
2019-04-06 19:00:00 5.5 21 Oeste 40 Oeste 0 -- -- 71
2019-04-06 18:00:00 5.2 19 Sudoeste 39 Oeste 0 -- -- 73
2019-04-06 17:00:00 3.9 17 Oeste 46 Oeste 0 -- -- 86
2019-04-06 16:00:00 4.4 24 Oeste 52 Sudoeste 0.4 -- -- 85
2019-04-06 15:00:00 3.1 17 Oeste 46 Oeste 0.6 -- -- 88
2019-04-06 14:00:00 5 23 Oeste 44 Oeste 0 -- -- 77
2019-04-06 13:00:00 3.7 21 Oeste 47 Oeste 0 -- -- 84
2019-04-06 12:00:00 3 24 Oeste 40 Sudoeste 0 -- -- 81
2019-04-06 11:00:00 1.7 16 Oeste 33 Oeste 0.2 -- -- 84
2019-04-06 10:00:00 1.2 16 Oeste 29 Oeste 0 -- -- 82
2019-04-06 09:00:00 1 10 Oeste 29 Oeste 0 -- -- 88
2019-04-06 08:00:00 0.7 10 Oeste 31 Sudoeste 0 -- -- 89
2019-04-06 07:00:00 1.1 9 Oeste 22 Oeste 0 -- -- 87
2019-04-06 06:00:00 1.1 10 Oeste 19 Oeste 0 -- -- 87
2019-04-06 05:00:00 1.2 8 Oeste 24 Oeste 0 -- -- 87
2019-04-06 04:00:00 1.2 9 Oeste 26 Oeste 0.2 -- -- 88
2019-04-06 03:00:00 1.4 11 Oeste 24 Oeste 0 -- -- 87
2019-04-06 02:00:00 1.3 14 Oeste 26 Oeste 0 -- -- 88
2019-04-06 01:00:00 1 7 Oeste 19 Oeste 0 -- -- 89
2019-04-06 00:00:00 0.9 11 Oeste 37 Oeste 0 -- -- 87
2019-04-05 23:00:00 1 18 Oeste 39 Oeste 0 -- -- 88
2019-04-05 22:00:00 0.9 13 Oeste 21 Sudoeste 0 -- -- 93
2019-04-05 21:00:00 1 14 Oeste 44 Oeste 0.4 -- -- 91
2019-04-05 20:00:00 2.9 11 Oeste 22 Oeste 0 -- -- 90
2019-04-05 19:00:00 2.5 4 Noroeste 13 Oeste 0.8 -- -- 92
2019-04-05 18:00:00 1.5 7 Noroeste 35 Sudoeste 1.4 -- -- 90
2019-04-05 17:00:00 3.7 5 Sur 22 Sudoeste 1.4 -- -- 88
2019-04-05 16:00:00 4 7 Sur 22 Sudoeste 0.2 -- -- 87
2019-04-05 15:00:00 4.2 4 Sudoeste 33 Sudoeste 0.8 -- -- 88
2019-04-05 14:00:00 4.9 13 Sudoeste 24 Sudoeste 0.4 -- -- 83
2019-04-05 13:00:00 5.5 7 Sudoeste 27 Oeste 0 -- -- 71
2019-04-05 12:00:00 5.2 9 Oeste 22 Oeste 0 -- -- 74
2019-04-05 11:00:00 4.5 8 Sudoeste 23 Sudoeste 0 -- -- 75
2019-04-05 10:00:00 4.4 9 Sudoeste 29 Oeste 0 -- -- 75
2019-04-05 09:00:00 4 14 Oeste 27 Oeste 0 -- -- 76
2019-04-05 08:00:00 3.1 11 Oeste 22 Oeste 0 -- -- 77
2019-04-05 07:00:00 3.8 8 Sudoeste 21 Oeste 0 -- -- 76
2019-04-05 06:00:00 4.2 8 Oeste 18 Oeste 0 -- -- 77
2019-04-05 05:00:00 4.5 13 Sur 26 Oeste 0 -- -- 80
2019-04-05 04:00:00 4.9 9 Sudoeste 25 Sur 0 -- -- 80
2019-04-05 03:00:00 4.8 6 Sudoeste 27 Sudoeste 0 -- -- 82
2019-04-05 02:00:00 4.7 10 Sudoeste 25 Sudoeste 0 -- -- 78
2019-04-05 01:00:00 3.6 4 Sudoeste 20 Este 0 -- -- 69
2019-04-05 00:00:00 0.6 0 Calma 2 Este 0 -- -- 68
2019-04-04 23:00:00 1.8 2 Este 5 Este 0 -- -- 59
2019-04-04 22:00:00 4.7 2 Oeste 13 Oeste 0 -- -- 48
2019-04-04 21:00:00 7.1 7 Sudoeste 19 Sudoeste 0 -- -- 36
2019-04-04 20:00:00 8.8 8 Sudoeste 22 Oeste 0 -- -- 29
2019-04-04 19:00:00 10.5 13 Oeste 32 Oeste 0 -- -- 29
2019-04-04 18:00:00 11.3 15 Oeste 30 Sudoeste 0 -- -- 31
2019-04-04 17:00:00 11.1 11 Sudoeste 26 Sudoeste 0 -- -- 26
2019-04-04 16:00:00 11.4 18 Oeste 30 Sudoeste 0 -- -- 30
2019-04-04 15:00:00 10.5 8 Oeste 28 Oeste 0 -- -- 30
2019-04-04 14:00:00 9.6 6 Oeste 30 Oeste 0 -- -- 31
2019-04-04 13:00:00 8.3 5 Noroeste 22 Oeste 0 -- -- 32
2019-04-04 12:00:00 7 5 Sudeste 18 Nordeste 0 -- -- 35
2019-04-04 11:00:00 4.7 5 Norte 18 Norte 0 -- -- 42
2019-04-04 10:00:00 2.8 4 Norte 12 Nordeste 0 -- -- 49
2019-04-04 09:00:00 -0.4 0 Calma 7 Este 0 -- -- 73
2019-04-04 08:00:00 -2.7 4 Este 14 Nordeste 0 -- -- 77
2019-04-04 07:00:00 -2.5 0 Calma 9 Este 0 -- -- 82
2019-04-04 06:00:00 -0.9 0 Calma 7 Noroeste 0 -- -- 74
2019-04-04 05:00:00 1.2 0 Calma 10 Oeste 0 -- -- 67
2019-04-04 04:00:00 1.7 4 Noroeste 12 Oeste 0 -- -- 67
2019-04-04 03:00:00 1.5 0 Calma 11 Norte 0 -- -- 71
2019-04-04 02:00:00 2.5 4 Noroeste 15 Norte 0 -- -- 66
2019-04-04 01:00:00 3.1 4 Norte 11 Norte 0 -- -- 70
2019-04-04 00:00:00 3.4 4 Nordeste 17 Este 0 -- -- 74
2019-04-03 23:00:00 4.7 10 Norte 27 Noroeste 0 -- -- 68
2019-04-03 22:00:00 6.2 2 Oeste 26 Oeste 0 -- -- 60
2019-04-03 21:00:00 7.9 8 Noroeste 21 Oeste 0 -- -- 59
2019-04-03 20:00:00 9.7 11 Oeste 31 Oeste 0 -- -- 55
2019-04-03 19:00:00 10.6 18 Oeste 36 Oeste 0 -- -- 54
2019-04-03 18:00:00 11.3 22 Oeste 43 Oeste 0 -- -- 51
2019-04-03 17:00:00 11.8 24 Oeste 46 Oeste 0 -- -- 55
2019-04-03 16:00:00 12.8 23 Oeste 44 Sudoeste 0 -- -- 48
2019-04-03 15:00:00 11.9 20 Oeste 40 Oeste 0 -- -- 52
2019-04-03 14:00:00 12.3 21 Oeste 41 Oeste 0 -- -- 58
2019-04-03 13:00:00 11.3 17 Oeste 38 Oeste 0 -- -- 68
2019-04-03 12:00:00 11.6 18 Sudoeste 33 Oeste 0 -- -- 66
2019-04-03 11:00:00 8.4 15 Oeste 26 Oeste 0 -- -- 91
2019-04-03 10:00:00 3.3 0 Calma 3 Sudoeste 0 -- -- 98
2019-04-03 09:00:00 1.3 0 Calma 2 Sudeste 0 -- -- 97
2019-04-03 08:00:00 1.2 0 Calma 2 Sudoeste 0 -- -- 96
2019-04-03 07:00:00 1.8 0 Calma 2 Sudoeste 0 -- -- 96
2019-04-03 06:00:00 2 0 Calma 3 Este 0 -- -- 96
2019-04-03 05:00:00 1.8 0 Calma 2 Este 0 -- -- 96
2019-04-03 04:00:00 1.8 0 Calma 3 Oeste 0 -- -- 95
2019-04-03 03:00:00 2.4 0 Calma 4 Sudoeste 0 -- -- 95
2019-04-03 02:00:00 2.6 0 Calma 2 Oeste 0 -- -- 93
2019-04-03 01:00:00 3.5 0 Calma 2 Este 0 -- -- 91
2019-04-03 00:00:00 4.8 2 Este 3 Este 0 -- -- 91
2019-04-02 23:00:00 5.9 0 Calma 4 Oeste 0 -- -- 90
2019-04-02 22:00:00 6.6 4 Oeste 6 Oeste 0 -- -- 88
2019-04-02 21:00:00 7.5 2 Oeste 13 Noroeste 0.4 -- -- 84
2019-04-02 20:00:00 9.2 4 Noroeste 20 Noroeste 0 -- -- 74
2019-04-02 19:00:00 10.5 8 Noroeste 28 Oeste 0 -- -- 64
2019-04-02 18:00:00 11.9 3 Nordeste 17 Oeste 0 -- -- 64
2019-04-02 17:00:00 12.9 6 Oeste 15 Sudoeste 0 -- -- 59
2019-04-02 16:00:00 12 5 Sur 18 Noroeste 0 -- -- 62
2019-04-02 15:00:00 11.8 6 Oeste 32 Oeste 0 -- -- 60
2019-04-02 14:00:00 12.2 12 Oeste 35 Oeste 0 -- -- 60
2019-04-02 13:00:00 11.9 3 Oeste 9 Sudeste 0 -- -- 66
2019-04-02 12:00:00 10.9 4 Sudoeste 10 Sudoeste 0 -- -- 80
2019-04-02 11:00:00 7.6 4 Oeste 7 Oeste 0 -- -- 86
2019-04-02 10:00:00 6.5 0 Calma 6 Oeste 0 -- -- 90
2019-04-02 09:00:00 5.3 0 Calma 3 Oeste 0 -- -- 96
2019-04-02 08:00:00 4.4 2 Este 5 Oeste 0 -- -- 94
2019-04-02 07:00:00 5.9 3 Noroeste 7 Noroeste 0 -- -- 94
2019-04-02 06:00:00 6.3 5 Oeste 10 Oeste 0 -- -- 95
2019-04-02 05:00:00 6.6 4 Sudoeste 9 Noroeste 0 -- -- 96
2019-04-02 04:00:00 6.6 3 Oeste 10 Oeste 0 -- -- 95
2019-04-02 03:00:00 6.7 3 Oeste 9 Oeste 0 -- -- 94
2019-04-02 02:00:00 6.7 4 Noroeste 10 Oeste 0 -- -- 93
2019-04-02 01:00:00 6.7 5 Oeste 9 Oeste 0 -- -- 93
2019-04-02 00:00:00 7.1 4 Noroeste 6 Noroeste 0 -- -- 91
2019-04-01 23:00:00 7.7 2 Oeste 4 Oeste 0 -- -- 88
2019-04-01 22:00:00 8.2 4 Sudoeste 17 Oeste 0 -- -- 87
2019-04-01 21:00:00 8.8 3 Sudeste 6 Sudeste 0 -- -- 85
2019-04-01 20:00:00 9.3 0 Calma 9 Sur 0 -- -- 81
2019-04-01 19:00:00 9.6 3 Sudeste 9 Sudeste 0 -- -- 81
2019-04-01 18:00:00 9.5 5 Sudeste 15 Este 0 -- -- 80
2019-04-01 17:00:00 9.4 4 Sur 12 Sur 0 -- -- 83
2019-04-01 16:00:00 8.7 5 Sur 10 Sur 0 -- -- 89
2019-04-01 15:00:00 8.3 5 Sudoeste 12 Sudoeste 0 -- -- 89
2019-04-01 14:00:00 8 3 Sudeste 13 Sur 0.6 -- -- 92
2019-04-01 13:00:00 7.6 6 Sudoeste 13 Sudoeste 0.4 -- -- 91
2019-04-01 12:00:00 7.6 4 Sur 14 Este 0.8 -- -- 90
2019-04-01 11:00:00 7.4 10 Este 15 Este 0 -- -- 91
2019-04-01 10:00:00 6.6 4 Este 8 Nordeste 0 -- -- 94
2019-04-01 09:00:00 6 5 Este 9 Este 0 -- -- 94
2019-04-01 08:00:00 5.8 4 Este 10 Este 0 -- -- 94
2019-04-01 07:00:00 5.7 5 Este 8 Este 0.4 -- -- 94
2019-04-01 06:00:00 5.8 4 Este 6 Nordeste 0.4 -- -- 93
2019-04-01 05:00:00 5.8 5 Este 8 Este 0.2 -- -- 93
2019-04-01 04:00:00 5.7 5 Este 9 Este 0.2 -- -- 93
2019-04-01 03:00:00 5.7 2 Este 10 Este 0.6 -- -- 93
2019-04-01 02:00:00 5.6 6 Este 9 Este 0.6 -- -- 93
2019-04-01 01:00:00 5.7 2 Este 10 Este 0 -- -- 92
2019-04-01 00:00:00 5.7 3 Este 9 Este 0.4 -- -- 91
2019-03-31 23:00:00 5.8 4 Este 12 Este 0.8 -- -- 89
2019-03-31 22:00:00 5.9 3 Este 12 Norte 0 -- -- 87
2019-03-31 21:00:00 5.9 0 Calma 11 Este 0 -- -- 86
2019-03-31 20:00:00 5.8 2 Este 13 Este 0 -- -- 86
2019-03-31 19:00:00 6 6 Este 15 Este 0 -- -- 85
2019-03-31 18:00:00 6.1 7 Nordeste 21 Nordeste 1 -- -- 85
2019-03-31 17:00:00 6.1 7 Este 16 Este 0.6 -- -- 86
2019-03-31 16:00:00 5.1 3 Este 18 Este 2 -- -- 87
2019-03-31 15:00:00 4.9 5 Nordeste 23 Este 2.8 -- -- 86
2019-03-31 14:00:00 5.6 12 Este 25 Este 2.4 -- -- 87
2019-03-31 13:00:00 6 11 Este 20 Este 2.6 -- -- 90
2019-03-31 12:00:00 5.3 0 Calma 3 Oeste 2.6 -- -- 93
2019-03-31 11:00:00 4.7 2 Oeste 5 Nordeste 2 -- -- 92
2019-03-31 10:00:00 4.5 4 Este 12 Este 1 -- -- 91
2019-03-31 09:00:00 3.4 2 Sudeste 8 Este 0.2 -- -- 92
2019-03-31 08:00:00 2.9 0 Calma 8 Sudoeste 0.4 -- -- 87
2019-03-31 07:00:00 3 3 Oeste 4 Sudoeste 0 -- -- 82
2019-03-31 06:00:00 3 2 Sudoeste 4 Sudoeste 0 -- -- 78
2019-03-31 05:00:00 2.4 0 Calma 4 Este 0 -- -- 79
2019-03-31 03:00:00 2 2 Nordeste 4 Este 0 -- -- 83
2019-03-31 01:00:00 1.4 0 Calma 3 Este 0 -- -- 82
2019-03-31 00:00:00 2.1 0 Calma 9 Nordeste 0 -- -- 82
2019-03-30 23:00:00 3.1 6 Este 12 Este 0 -- -- 83
2019-03-30 22:00:00 3.6 3 Este 11 Este 0 -- -- 80
2019-03-30 21:00:00 5.5 4 Este 13 Este 0 -- -- 74
2019-03-30 20:00:00 7.6 6 Sudeste 23 Este 0 -- -- 68
2019-03-30 19:00:00 10 14 Este 28 Este 0 -- -- 58
2019-03-30 18:00:00 12.9 10 Sudeste 23 Este 0 -- -- 45
2019-03-30 17:00:00 14.6 8 Sudeste 21 Sudoeste 0 -- -- 38
2019-03-30 16:00:00 15.4 8 Sur 20 Sudoeste 0 -- -- 33
2019-03-30 15:00:00 15.1 10 Sur 24 Sudoeste 0 -- -- 35
2019-03-30 14:00:00 14.3 8 Sur 22 Sudoeste 0 -- -- 36
2019-03-30 13:00:00 13.1 7 Este 19 Este 0 -- -- 36
2019-03-30 12:00:00 10.7 11 Este 22 Este 0 -- -- 40
2019-03-30 11:00:00 9.9 7 Este 19 Este 0 -- -- 43
2019-03-30 10:00:00 7.8 3 Sudeste 9 Este 0 -- -- 48
2019-03-30 09:00:00 1.8 0 Calma 3 Sur 0 -- -- 72
2019-03-30 08:00:00 -3.1 0 Calma 4 Este 0 -- -- 88
2019-03-30 07:00:00 -5.5 3 Este 5 Este 0 -- -- 89
2019-03-30 06:00:00 -5.3 3 Este 4 Este 0 -- -- 88
2019-03-30 05:00:00 -5.1 3 Este 5 Este 0 -- -- 88
2019-03-30 04:00:00 -4.6 3 Este 4 Este 0 -- -- 87
2019-03-30 03:00:00 -3.9 2 Este 5 Este 0 -- -- 86
2019-03-30 02:00:00 -2.9 0 Calma 4 Este 0 -- -- 83
2019-03-30 01:00:00 -1.9 0 Calma 2 Este 0 -- -- 81
2019-03-30 00:00:00 -0.4 0 Calma 6 Noroeste 0 -- -- 77
2019-03-29 23:00:00 1.8 0 Calma 4 Noroeste 0 -- -- 73
2019-03-29 22:00:00 4 2 Nordeste 11 Este 0 -- -- 65
2019-03-29 21:00:00 5.3 3 Este 13 Este 0 -- -- 58
2019-03-29 20:00:00 6.7 6 Este 15 Este 0 -- -- 55
2019-03-29 19:00:00 8.1 6 Sur 21 Este 0 -- -- 51
2019-03-29 18:00:00 10.1 12 Este 32 Este 0 -- -- 44
2019-03-29 17:00:00 12.1 18 Este 34 Este 0 -- -- 37
2019-03-29 16:00:00 12.8 21 Este 35 Este 0 -- -- 33
2019-03-29 15:00:00 12.6 13 Este 35 Este 0 -- -- 34
2019-03-29 14:00:00 12.6 18 Este 41 Este 0 -- -- 35
2019-03-29 13:00:00 12.2 20 Este 38 Este 0 -- -- 34
2019-03-29 12:00:00 11.6 13 Este 40 Este 0 -- -- 37
2019-03-29 11:00:00 11 16 Este 35 Este 0 -- -- 37
2019-03-29 10:00:00 9.2 15 Este 33 Este 0 -- -- 38
2019-03-29 09:00:00 2.6 0 Calma 4 Sudoeste 0 -- -- 51
2019-03-29 08:00:00 -2.8 0 Calma 4 Este 0 -- -- 69
2019-03-29 07:00:00 -5.5 3 Este 4 Este 0 -- -- 73
2019-03-29 06:00:00 -5.3 3 Este 5 Este 0 -- -- 75
2019-03-29 05:00:00 -4.7 3 Este 5 Este 0 -- -- 76
2019-03-29 04:00:00 -4.1 2 Este 5 Este 0 -- -- 78
2019-03-29 03:00:00 -3.5 2 Este 5 Este 0 -- -- 78
2019-03-29 02:00:00 -2.6 2 Este 4 Este 0 -- -- 77
2019-03-29 01:00:00 -1.7 0 Calma 5 Este 0 -- -- 74
2019-03-29 00:00:00 -0.4 0 Calma 2 Nordeste 0 -- -- 69
2019-03-28 23:00:00 1.2 0 Calma 4 Norte 0 -- -- 63
2019-03-28 22:00:00 3.1 0 Calma 10 Este 0 -- -- 60
2019-03-28 21:00:00 5.8 8 Este 17 Nordeste 0 -- -- 53
2019-03-28 20:00:00 8 4 Este 21 Este 0 -- -- 44
2019-03-28 19:00:00 11.3 7 Sudeste 20 Este 0 -- -- 35
2019-03-28 18:00:00 14 7 Sudeste 19 Este 0 -- -- 26
2019-03-28 17:00:00 15.4 12 Este 23 Este 0 -- -- 25
2019-03-28 16:00:00 15.4 11 Este 34 Este 0 -- -- 24
2019-03-28 15:00:00 15.4 16 Sudeste 27 Este 0 -- -- 23
2019-03-28 14:00:00 14.6 6 Este 23 Este 0 -- -- 23
2019-03-28 13:00:00 13.8 6 Este 22 Este 0 -- -- 23
2019-03-28 12:00:00 13.1 8 Sudeste 19 Sudoeste 0 -- -- 25
2019-03-28 11:00:00 11.9 4 Sudeste 10 Sudoeste 0 -- -- 29
2019-03-28 10:00:00 8.2 2 Sur 4 Sudeste 0 -- -- 42
2019-03-28 09:00:00 3.3 0 Calma 3 Sudeste 0 -- -- 60
2019-03-28 08:00:00 -2.9 2 Este 4 Este 0 -- -- 83
2019-03-28 07:00:00 -5.3 2 Este 5 Este 0 -- -- 86
2019-03-28 06:00:00 -5.2 -- -- -- -- 0 -- -- 84
2019-03-28 05:00:00 -4.7 3 Este 5 Este 0 -- -- 83
2019-03-28 04:00:00 -4 4 Este 5 Este 0 -- -- 81
2019-03-28 03:00:00 -3.5 2 Este 5 Nordeste 0 -- -- 80
2019-03-28 02:00:00 -2.7 0 Calma 4 Este 0 -- -- 78
2019-03-28 01:00:00 -2.1 3 Nordeste 5 Nordeste 0 -- -- 76
2019-03-28 00:00:00 -1.1 2 Este 5 Este 0 -- -- 71
2019-03-27 23:00:00 0.5 0 Calma 5 Este 0 -- -- 64
2019-03-27 22:00:00 2.7 3 Este 6 Este 0 -- -- 58
2019-03-27 21:00:00 5.4 2 Este 12 Este 0 -- -- 50
2019-03-27 20:00:00 8.2 8 Este 14 Este 0 -- -- 43
2019-03-27 19:00:00 13.1 6 Nordeste 17 Este 0 -- -- 25
2019-03-27 18:00:00 14.2 10 Nordeste 27 Este 0 -- -- 23
2019-03-27 17:00:00 14.9 12 Este 33 Nordeste 0 -- -- 23
2019-03-27 16:00:00 14.7 11 Este 31 Este 0 -- -- 25
2019-03-27 15:00:00 14.7 14 Este 29 Este 0 -- -- 23
2019-03-27 14:00:00 14 14 Este 30 Este 0 -- -- 22
2019-03-27 13:00:00 13 16 Este 31 Este 0 -- -- 23
2019-03-27 12:00:00 11.9 16 Este 29 Este 0 -- -- 29
2019-03-27 11:00:00 10.6 14 Este 21 Este 0 -- -- 39
2019-03-27 10:00:00 7.7 3 Sudoeste 9 Sudoeste 0 -- -- 53
2019-03-27 09:00:00 3.4 0 Calma 5 Oeste 0 -- -- 77
2019-03-27 08:00:00 1.3 0 Calma 7 Este 0 -- -- 84
2019-03-27 07:00:00 0.6 0 Calma 12 Norte 0 -- -- 82
2019-03-27 06:00:00 2.2 4 Nordeste 8 Nordeste 0 -- -- 81
2019-03-27 05:00:00 3.4 3 Este 10 Este 0 -- -- 79
2019-03-27 04:00:00 3.7 2 Sur 8 Sudeste 0 -- -- 80
2019-03-27 03:00:00 4.1 3 Sudeste 7 Sudeste 0 -- -- 81
2019-03-27 02:00:00 4.3 2 Este 4 Este 0 -- -- 82
2019-03-27 01:00:00 3.7 3 Nordeste 3 Nordeste 0 -- -- 85
2019-03-27 00:00:00 2.7 2 Oeste 6 Este 0 -- -- 80